Time;durP1;ratioP1;P1;durP2;ratioP2;P2;SDS_P1;SDS_P2;PMS_P1;PMS_P2;Temp;Humidity;BMP_temperature;BMP_pressure;BME280_temperature;BME280_humidity;BME280_pressure;Samples;Min_cycle;Max_cycle;Signal;HPM_P1;HPM_P2
2020/12/10 00:00:48;;;;;;;12.65;6.18;;;7.30;68.50;;;;;;4961154;28;20045;-73
2020/12/10 00:03:14;;;;;;;10.48;6.60;;;7.30;68.50;;;;;;4958826;28;20552;-78
2020/12/10 00:05:39;;;;;;;12.68;7.72;;;7.20;68.50;;;;;;4960803;28;20043;-74
2020/12/10 00:08:05;;;;;;;10.00;6.63;;;7.20;68.50;;;;;;4962782;28;20121;-76
2020/12/10 00:10:31;;;;;;;9.82;6.40;;;7.20;68.50;;;;;;4960036;28;20114;-76
2020/12/10 00:12:57;;;;;;;12.25;7.32;;;7.10;68.40;;;;;;4959156;28;20030;-76
2020/12/10 00:15:22;;;;;;;9.85;6.20;;;7.10;68.40;;;;;;4958808;28;20514;-74
2020/12/10 00:17:48;;;;;;;9.60;6.80;;;7.10;68.50;;;;;;4959376;28;20019;-74
2020/12/10 00:20:14;;;;;;;9.93;6.45;;;7.10;68.50;;;;;;4960922;28;20564;-73
2020/12/10 00:22:39;;;;;;;12.77;6.72;;;7.20;68.70;;;;;;4958778;28;20034;-75
2020/12/10 00:25:06;;;;;;;9.82;6.00;;;7.10;68.60;;;;;;4963578;28;20039;-75
2020/12/10 00:27:32;;;;;;;9.55;5.75;;;7.10;68.60;;;;;;4960295;28;20031;-75
2020/12/10 00:29:57;;;;;;;9.50;6.18;;;7.10;68.60;;;;;;4961371;28;20113;-75
2020/12/10 00:32:26;;;;;;;9.40;6.10;;;7.10;68.70;;;;;;4961253;28;20035;-77
2020/12/10 00:34:56;;;;;;;10.13;6.70;;;7.10;68.60;;;;;;4957194;28;20035;-76
2020/12/10 00:37:26;;;;;;;10.07;5.80;;;7.10;68.70;;;;;;4960307;28;20042;-75
2020/12/10 00:39:52;;;;;;;8.95;5.55;;;7.10;68.60;;;;;;4958142;28;20521;-75
2020/12/10 00:42:17;;;;;;;7.05;5.38;;;7.10;69.20;;;;;;4953640;28;20043;-76
2020/12/10 00:44:43;;;;;;;9.07;6.07;;;7.10;68.60;;;;;;4961243;28;20410;-73
2020/12/10 00:47:08;;;;;;;10.18;6.10;;;7.10;68.60;;;;;;4961336;28;20041;-74
2020/12/10 00:49:34;;;;;;;9.93;5.45;;;7.10;68.60;;;;;;4961301;28;20027;-74
2020/12/10 00:51:59;;;;;;;9.15;5.97;;;7.10;68.60;;;;;;4964071;28;20027;-74
2020/12/10 00:54:25;;;;;;;12.20;6.57;;;7.10;68.70;;;;;;4960091;28;20035;-74
2020/12/10 00:56:50;;;;;;;9.77;5.50;;;7.00;68.70;;;;;;4954967;28;20517;-73
2020/12/10 00:59:16;;;;;;;10.55;6.40;;;7.10;68.70;;;;;;4961380;28;20035;-77
2020/12/10 01:01:43;;;;;;;11.85;6.85;;;7.10;68.70;;;;;;4958134;28;20043;-73
2020/12/10 01:04:13;;;;;;;12.60;6.93;;;7.10;68.70;;;;;;5015347;23;20417;-71
2020/12/10 01:06:39;;;;;;;11.23;6.45;;;7.10;68.80;;;;;;4964638;28;20729;-71
2020/12/10 01:09:07;;;;;;;12.77;7.25;;;7.10;68.80;;;;;;4963689;28;20146;-71
2020/12/10 01:11:33;;;;;;;12.50;7.35;;;7.10;68.80;;;;;;4962422;28;20055;-71
2020/12/10 01:13:58;;;;;;;12.43;6.57;;;7.10;68.90;;;;;;4971269;28;20070;-71
2020/12/10 01:16:24;;;;;;;10.73;6.78;;;7.10;68.90;;;;;;4968300;28;20031;-71
2020/12/10 01:18:53;;;;;;;10.73;6.75;;;7.20;69.50;;;;;;4979049;28;20038;-71
2020/12/10 01:21:29;;;;;;;13.32;7.82;;;7.20;68.90;;;;;;5002331;28;20040;-71
2020/12/10 01:23:54;;;;;;;12.13;7.18;;;7.20;68.80;;;;;;4998987;28;20038;-72
2020/12/10 01:26:20;;;;;;;11.75;7.30;;;7.20;68.80;;;;;;5003771;28;20038;-71
2020/12/10 01:28:45;;;;;;;14.50;9.18;;;7.20;68.80;;;;;;5003148;28;20732;-71
2020/12/10 01:31:14;;;;;;;11.82;7.20;;;7.20;68.80;;;;;;5001192;28;20026;-71
2020/12/10 01:33:39;;;;;;;13.85;8.07;;;7.20;68.80;;;;;;5001630;28;20037;-71
2020/12/10 01:36:05;;;;;;;12.07;7.20;;;7.20;68.90;;;;;;5001921;28;20030;-71
2020/12/10 01:38:30;;;;;;;12.98;7.00;;;7.10;68.80;;;;;;5001696;28;20034;-71
2020/12/10 01:40:56;;;;;;;12.23;7.30;;;7.20;68.80;;;;;;4999671;28;20509;-72
2020/12/10 01:43:21;;;;;;;10.98;7.05;;;7.20;68.80;;;;;;5001119;28;20054;-71
2020/12/10 01:45:47;;;;;;;12.90;8.38;;;7.20;68.70;;;;;;5003239;28;20034;-71
2020/12/10 01:48:12;;;;;;;15.27;8.20;;;7.20;68.70;;;;;;5000170;28;20030;-71
2020/12/10 01:50:38;;;;;;;12.32;7.57;;;7.30;68.70;;;;;;5000893;28;20038;-70
2020/12/10 01:53:03;;;;;;;10.38;7.00;;;7.20;68.70;;;;;;5001245;28;20030;-71
2020/12/10 01:55:29;;;;;;;11.90;7.05;;;7.20;68.60;;;;;;5004519;28;20679;-71
2020/12/10 01:57:55;;;;;;;13.40;7.90;;;7.20;68.50;;;;;;5002614;28;20492;-71
2020/12/10 02:00:20;;;;;;;12.30;7.13;;;7.20;68.60;;;;;;5002394;28;20117;-71
2020/12/10 02:02:46;;;;;;;10.82;7.03;;;7.10;68.50;;;;;;5001523;28;20042;-71
2020/12/10 02:05:11;;;;;;;12.13;6.97;;;7.20;68.70;;;;;;5002805;28;20042;-71
2020/12/10 02:07:37;;;;;;;11.63;6.60;;;7.20;68.70;;;;;;5002288;28;20053;-71
2020/12/10 02:10:03;;;;;;;12.32;7.88;;;7.10;68.70;;;;;;5001953;28;20531;-73
2020/12/10 02:12:28;;;;;;;11.65;6.85;;;7.20;68.90;;;;;;5003154;28;20032;-71
2020/12/10 02:14:54;;;;;;;11.18;7.00;;;7.20;68.90;;;;;;5002318;28;20037;-71
2020/12/10 02:17:19;;;;;;;13.55;8.32;;;7.20;68.90;;;;;;5003908;28;20044;-71
2020/12/10 02:19:46;;;;;;;12.38;6.93;;;7.20;68.90;;;;;;5003253;28;20046;-71
2020/12/10 02:22:11;;;;;;;10.90;6.68;;;7.20;68.90;;;;;;5001405;28;20030;-71
2020/12/10 02:24:37;;;;;;;15.30;7.63;;;7.30;68.90;;;;;;5002217;28;20096;-72
2020/12/10 02:27:02;;;;;;;13.85;7.55;;;7.20;68.80;;;;;;5002329;28;20034;-71
2020/12/10 02:29:28;;;;;;;13.02;7.53;;;7.30;68.70;;;;;;5000347;28;20033;-71
2020/12/10 02:31:53;;;;;;;12.20;7.07;;;7.20;68.70;;;;;;5003213;28;20030;-71
2020/12/10 02:34:19;;;;;;;14.40;8.27;;;7.30;68.70;;;;;;4998580;28;20041;-71
2020/12/10 02:36:44;;;;;;;13.60;8.00;;;7.20;68.70;;;;;;5003687;28;20042;-71
2020/12/10 02:39:10;;;;;;;14.23;8.35;;;7.30;68.70;;;;;;5001625;28;20033;-71
2020/12/10 02:41:37;;;;;;;12.00;8.00;;;7.20;68.70;;;;;;5000483;28;20575;-71
2020/12/10 02:44:04;;;;;;;13.30;7.45;;;7.20;68.70;;;;;;4998729;28;20030;-71
2020/12/10 02:46:29;;;;;;;13.32;8.23;;;7.30;68.70;;;;;;4993742;28;20481;-71
2020/12/10 02:48:55;;;;;;;14.52;8.65;;;7.30;68.70;;;;;;4997925;28;20103;-71
2020/12/10 02:51:20;;;;;;;14.48;8.38;;;7.20;68.70;;;;;;5000286;28;20045;-71
2020/12/10 02:53:46;;;;;;;15.23;9.18;;;7.30;68.70;;;;;;5003458;28;20531;-71
2020/12/10 02:56:13;;;;;;;13.15;8.57;;;7.20;68.80;;;;;;5008448;28;20412;-71
2020/12/10 02:58:40;;;;;;;12.80;7.75;;;7.20;68.80;;;;;;5007243;28;20121;-71
2020/12/10 03:01:09;;;;;;;12.23;7.60;;;7.20;68.80;;;;;;5006270;28;20500;-72
2020/12/10 03:03:35;;;;;;;12.30;7.63;;;7.20;68.80;;;;;;5007641;28;20152;-71
2020/12/10 03:06:02;;;;;;;13.48;7.55;;;7.30;68.80;;;;;;5006597;28;20033;-71
2020/12/10 03:08:28;;;;;;;12.95;7.60;;;7.20;68.70;;;;;;5005436;28;20575;-71
2020/12/10 03:10:54;;;;;;;12.43;7.25;;;7.20;68.70;;;;;;5005961;28;20026;-71
2020/12/10 03:13:20;;;;;;;11.60;7.40;;;7.30;68.70;;;;;;5006468;28;20034;-71
2020/12/10 03:15:46;;;;;;;11.15;6.97;;;7.20;68.60;;;;;;5004634;28;20037;-72
2020/12/10 03:18:11;;;;;;;11.18;7.30;;;7.30;68.70;;;;;;5006810;28;20026;-71
2020/12/10 03:20:37;;;;;;;11.98;6.97;;;7.30;68.70;;;;;;5002927;28;20401;-71
2020/12/10 03:23:03;;;;;;;13.40;8.10;;;7.20;68.70;;;;;;5006325;28;20030;-71
2020/12/10 03:25:29;;;;;;;11.13;6.78;;;7.30;68.70;;;;;;5005901;28;20050;-71
2020/12/10 03:27:54;;;;;;;12.48;7.72;;;7.30;68.70;;;;;;5005652;28;20103;-71
2020/12/10 03:30:20;;;;;;;9.63;6.25;;;7.20;68.70;;;;;;5004322;28;20034;-71
2020/12/10 03:32:45;;;;;;;12.25;7.25;;;7.20;68.60;;;;;;5009295;28;20121;-71
2020/12/10 03:35:11;;;;;;;13.27;7.32;;;7.20;68.60;;;;;;5005196;28;20545;-71
2020/12/10 03:37:37;;;;;;;12.13;7.18;;;7.20;68.50;;;;;;5005287;28;20056;-71
2020/12/10 03:40:04;;;;;;;13.02;8.27;;;7.30;68.50;;;;;;5005837;28;20041;-71
2020/12/10 03:42:29;;;;;;;11.27;6.82;;;7.30;68.50;;;;;;5002726;28;20084;-71
2020/12/10 03:44:55;;;;;;;12.75;7.32;;;7.20;68.40;;;;;;5004233;28;20037;-71
2020/12/10 03:47:20;;;;;;;11.65;7.10;;;7.20;68.50;;;;;;5004033;28;20049;-71
2020/12/10 03:49:46;;;;;;;13.38;7.93;;;7.20;68.50;;;;;;5006506;28;20038;-71
2020/12/10 03:52:11;;;;;;;13.45;7.70;;;7.20;68.60;;;;;;5003790;28;20512;-71
2020/12/10 03:54:37;;;;;;;11.43;7.47;;;7.20;68.70;;;;;;5004035;28;20037;-71
2020/12/10 03:57:02;;;;;;;13.77;7.70;;;7.20;68.70;;;;;;5003327;28;20428;-71
2020/12/10 03:59:28;;;;;;;13.40;7.88;;;7.20;68.70;;;;;;5003517;28;20037;-70
2020/12/10 04:01:55;;;;;;;11.27;7.15;;;7.20;68.70;;;;;;5004529;28;20405;-72
2020/12/10 04:04:20;;;;;;;12.90;7.65;;;7.20;68.70;;;;;;5005835;28;20049;-71
2020/12/10 04:06:46;;;;;;;13.77;8.52;;;7.20;68.60;;;;;;5004684;28;20531;-71
2020/12/10 04:09:11;;;;;;;11.05;7.68;;;7.20;68.50;;;;;;5005881;28;20077;-71
2020/12/10 04:11:38;;;;;;;11.73;6.80;;;7.30;68.50;;;;;;5005103;28;20041;-71
2020/12/10 04:14:04;;;;;;;13.32;8.43;;;7.20;68.40;;;;;;5003685;28;20104;-71
2020/12/10 04:16:29;;;;;;;12.48;8.25;;;7.20;68.30;;;;;;5005093;28;20030;-71
2020/12/10 04:18:55;;;;;;;12.38;7.22;;;7.20;68.40;;;;;;5001690;28;20034;-73
2020/12/10 04:21:20;;;;;;;14.45;7.43;;;7.10;68.40;;;;;;5006698;28;20034;-71
2020/12/10 04:23:46;;;;;;;11.40;7.13;;;7.20;68.50;;;;;;5003861;28;20052;-71
2020/12/10 04:26:14;;;;;;;13.02;8.10;;;7.20;68.50;;;;;;4991503;28;20192;-71
2020/12/10 04:28:40;;;;;;;10.85;7.22;;;7.20;68.50;;;;;;4994711;28;20172;-71
2020/12/10 04:31:05;;;;;;;11.18;7.32;;;7.20;68.50;;;;;;5005656;28;20116;-71
2020/12/10 04:33:31;;;;;;;12.27;7.50;;;7.20;68.50;;;;;;5002362;28;20037;-71
2020/12/10 04:35:56;;;;;;;11.25;6.88;;;7.20;68.50;;;;;;5005947;28;20195;-71
2020/12/10 04:38:22;;;;;;;12.70;7.55;;;7.20;68.50;;;;;;5003820;28;20104;-71
2020/12/10 04:40:48;;;;;;;12.35;7.72;;;7.20;68.60;;;;;;5003329;28;20041;-72
2020/12/10 04:43:14;;;;;;;10.80;6.60;;;7.20;68.70;;;;;;5003279;28;20039;-71
2020/12/10 04:45:40;;;;;;;10.88;6.85;;;7.20;68.70;;;;;;5002597;28;20033;-71
2020/12/10 04:48:06;;;;;;;12.02;7.90;;;7.20;68.70;;;;;;5004830;28;20025;-71
2020/12/10 04:50:35;;;;;;;10.52;7.20;;;7.20;68.70;;;;;;5004135;28;20061;-72
2020/12/10 04:53:02;;;;;;;11.32;7.38;;;7.20;68.70;;;;;;5004758;28;20485;-72
2020/12/10 04:55:28;;;;;;;10.10;7.07;;;7.20;68.70;;;;;;5005780;28;20045;-71
2020/12/10 04:57:54;;;;;;;13.82;7.38;;;7.20;68.70;;;;;;5001971;28;20034;-71
2020/12/10 05:00:21;;;;;;;11.95;6.97;;;7.20;68.70;;;;;;5005291;28;20483;-71
2020/12/10 05:02:47;;;;;;;10.50;6.22;;;7.20;68.70;;;;;;5003935;28;20029;-71
2020/12/10 05:05:31;;;;;;;12.38;7.65;;;7.20;68.70;;;;;;5004239;28;20065;-71
2020/12/10 05:07:58;;;;;;;11.55;7.15;;;7.20;68.70;;;;;;4997203;28;20053;-71
2020/12/10 05:10:24;;;;;;;11.73;6.97;;;7.20;68.80;;;;;;5000679;28;20045;-71
2020/12/10 05:12:50;;;;;;;11.13;6.47;;;7.30;68.80;;;;;;5003717;28;20034;-71
2020/12/10 05:15:31;;;;;;;12.77;6.85;;;7.30;68.70;;;;;;5002148;28;20515;-71
2020/12/10 05:18:11;;;;;;;12.95;7.25;;;7.30;68.50;;;;;;4996325;28;20034;-71
2020/12/10 05:20:46;;;;;;;13.52;7.20;;;7.30;68.50;;;;;;5001166;28;20129;-72
2020/12/10 05:23:13;;;;;;;11.80;6.63;;;7.30;68.40;;;;;;5000688;28;20030;-71
2020/12/10 05:25:45;;;;;;;12.00;6.95;;;7.30;69.00;;;;;;5002098;28;20042;-72
2020/12/10 05:28:11;;;;;;;11.20;6.22;;;7.30;68.40;;;;;;5002803;28;20648;-72
2020/12/10 05:30:37;;;;;;;13.05;8.02;;;7.30;68.40;;;;;;5003750;28;20028;-71
2020/12/10 05:33:10;;;;;;;11.57;6.35;;;7.30;68.40;;;;;;5004491;28;20488;-71
2020/12/10 05:35:36;;;;;;;12.82;7.10;;;7.30;68.30;;;;;;5000693;28;20026;-71
2020/12/10 05:38:08;;;;;;;13.63;7.10;;;7.30;68.40;;;;;;5002379;28;20036;-72
2020/12/10 05:40:34;;;;;;;12.95;7.10;;;7.30;68.90;;;;;;5002328;28;20438;-71
2020/12/10 05:42:59;;;;;;;13.48;7.45;;;7.30;68.40;;;;;;5000994;28;20061;-71
2020/12/10 05:45:25;;;;;;;12.32;7.53;;;7.30;68.40;;;;;;5001161;28;20034;-71
2020/12/10 05:47:54;;;;;;;12.13;7.32;;;7.30;68.40;;;;;;5001337;28;20493;-71
2020/12/10 05:50:25;;;;;;;15.00;7.38;;;7.30;68.40;;;;;;5001304;28;20456;-71
2020/12/10 05:52:59;;;;;;;11.27;6.00;;;7.20;68.40;;;;;;5001701;28;20112;-71
2020/12/10 05:55:25;;;;;;;12.93;7.18;;;7.20;68.40;;;;;;5002981;28;20026;-71
2020/12/10 05:57:51;;;;;;;11.75;6.68;;;7.20;68.40;;;;;;4994148;28;20030;-71
2020/12/10 06:00:16;;;;;;;16.50;8.27;;;7.20;68.40;;;;;;5002311;28;20026;-71
2020/12/10 06:02:42;;;;;;;14.55;8.20;;;7.20;68.50;;;;;;5004828;28;20049;-71
2020/12/10 06:05:09;;;;;;;12.85;6.85;;;7.20;68.60;;;;;;5002514;28;20034;-71
2020/12/10 06:07:35;;;;;;;15.00;8.18;;;7.10;68.50;;;;;;5001815;28;20560;-72
2020/12/10 06:10:02;;;;;;;15.32;7.45;;;7.10;68.60;;;;;;5006886;28;20121;-71
2020/12/10 06:12:28;;;;;;;14.23;8.07;;;7.20;68.60;;;;;;5002256;28;20073;-71
2020/12/10 06:15:00;;;;;;;14.93;8.48;;;7.10;68.50;;;;;;5000421;28;20061;-71
2020/12/10 06:17:26;;;;;;;19.17;10.15;;;7.20;68.50;;;;;;5001413;28;20060;-73
2020/12/10 06:19:52;;;;;;;14.93;8.52;;;7.10;68.50;;;;;;5000840;28;20128;-73
2020/12/10 06:22:25;;;;;;;15.80;7.78;;;7.20;68.60;;;;;;5001936;28;20034;-74
2020/12/10 06:24:52;;;;;;;17.35;8.43;;;7.20;68.60;;;;;;4994018;28;20038;-72
2020/12/10 06:27:23;;;;;;;17.88;9.07;;;7.20;68.70;;;;;;5003970;28;20061;-71
2020/12/10 06:29:49;;;;;;;15.80;8.95;;;7.20;68.70;;;;;;5001685;28;20034;-73
2020/12/10 06:32:19;;;;;;;14.95;8.32;;;7.20;68.70;;;;;;5003419;28;20519;-72
2020/12/10 06:34:50;;;;;;;16.45;9.63;;;7.10;68.70;;;;;;5000036;28;20034;-71
2020/12/10 06:37:29;;;;;;;15.13;8.80;;;7.20;68.70;;;;;;5002432;28;20026;-72
2020/12/10 06:40:03;;;;;;;13.65;7.50;;;7.20;68.70;;;;;;4996487;28;20030;-72
2020/12/10 06:42:46;;;;;;;16.60;7.93;;;7.20;68.70;;;;;;4999891;28;20034;-71
2020/12/10 06:45:31;;;;;;;15.15;8.70;;;7.20;68.50;;;;;;5003118;28;20029;-72
2020/12/10 06:47:57;;;;;;;14.40;8.35;;;7.20;68.50;;;;;;4995577;28;20049;-71
2020/12/10 06:50:31;;;;;;;16.02;8.80;;;7.20;68.50;;;;;;5000310;28;20037;-73
2020/12/10 06:53:16;;;;;;;16.90;8.20;;;7.20;68.50;;;;;;4998717;28;20057;-73
2020/12/10 06:56:02;;;;;;;15.18;8.32;;;7.20;68.50;;;;;;5002363;28;20034;-71
2020/12/10 06:58:37;;;;;;;17.42;9.25;;;7.20;68.60;;;;;;4999891;28;20049;-71
2020/12/10 07:01:35;;;;;;;16.17;8.45;;;7.20;68.70;;;;;;5002189;28;20042;-72
2020/12/10 07:07:11;;;;;;;19.33;9.68;;;7.20;68.70;;;;;;4997202;28;20033;-71
2020/12/10 07:09:58;;;;;;;18.00;9.07;;;7.10;68.70;;;;;;5003964;28;20100;-72
2020/12/10 07:12:26;;;;;;;18.88;9.30;;;7.10;68.70;;;;;;5003969;28;20173;-72
2020/12/10 07:15:11;;;;;;;14.05;7.95;;;7.10;68.80;;;;;;4996414;28;20030;-75
2020/12/10 07:17:37;;;;;;;15.32;8.60;;;7.20;68.80;;;;;;5000213;28;20413;-72
2020/12/10 07:20:03;;;;;;;16.27;8.43;;;7.10;68.80;;;;;;5001474;28;20026;-72
2020/12/10 07:22:28;;;;;;;21.00;10.85;;;7.10;68.80;;;;;;5003802;28;20048;-73
2020/12/10 07:24:54;;;;;;;13.70;9.45;;;7.20;68.90;;;;;;5004223;28;20022;-72
2020/12/10 07:27:19;;;;;;;15.95;8.70;;;7.20;68.90;;;;;;5003412;28;20552;-72
2020/12/10 07:29:51;;;;;;;17.55;9.50;;;7.20;68.90;;;;;;5005807;28;20033;-71
2020/12/10 07:32:17;;;;;;;14.43;8.15;;;7.20;68.90;;;;;;5004210;28;20038;-72
2020/12/10 07:34:44;;;;;;;15.15;8.10;;;7.20;69.00;;;;;;5004917;28;20125;-80
2020/12/10 07:37:12;;;;;;;15.15;7.97;;;7.20;69.20;;;;;;5012086;28;20095;-81
2020/12/10 07:39:38;;;;;;;15.13;8.05;;;7.30;69.30;;;;;;5011318;28;20030;-80
2020/12/10 07:42:04;;;;;;;12.05;7.20;;;7.30;69.20;;;;;;5012890;28;20037;-81
2020/12/10 07:44:31;;;;;;;15.85;9.23;;;7.30;69.20;;;;;;5018666;28;20033;-80
2020/12/10 07:46:58;;;;;;;19.38;9.25;;;7.40;69.20;;;;;;5015100;28;20030;-80
2020/12/10 07:49:32;;;;;;;21.83;11.45;;;7.40;69.10;;;;;;5013808;28;20097;-81
2020/12/10 07:52:03;;;;;;;15.93;9.02;;;7.40;69.00;;;;;;5008725;28;20046;-80
2020/12/10 07:54:50;;;;;;;16.33;8.73;;;7.40;68.90;;;;;;5012617;28;20065;-79
2020/12/10 07:57:29;;;;;;;13.80;8.07;;;7.30;68.80;;;;;;5013263;28;20022;-81
2020/12/10 08:00:06;;;;;;;14.13;7.82;;;7.40;68.80;;;;;;5007994;28;20453;-79
2020/12/10 08:03:00;;;;;;;14.55;8.32;;;7.40;69.40;;;;;;5010557;28;20105;-80
2020/12/10 08:05:26;;;;;;;17.02;8.93;;;7.40;68.90;;;;;;5011858;28;20049;-81
2020/12/10 08:07:53;;;;;;;13.82;7.90;;;7.40;68.90;;;;;;5004347;28;20344;-80
2020/12/10 08:10:29;;;;;;;16.30;9.25;;;7.40;68.90;;;;;;5014446;28;20030;-81
2020/12/10 08:13:08;;;;;;;16.90;8.93;;;7.40;68.90;;;;;;5011177;28;20026;-81
2020/12/10 08:15:33;;;;;;;15.98;8.93;;;7.40;68.90;;;;;;5010825;28;20030;-79
2020/12/10 08:18:06;;;;;;;16.65;8.48;;;7.40;68.80;;;;;;5005732;28;20034;-78
2020/12/10 08:20:52;;;;;;;15.73;7.85;;;7.40;68.80;;;;;;5002792;28;20038;-80
2020/12/10 08:23:20;;;;;;;16.20;8.40;;;7.40;68.80;;;;;;5006955;28;20136;-76
2020/12/10 08:25:48;;;;;;;17.15;8.65;;;7.40;68.80;;;;;;4999728;28;20034;-77
2020/12/10 08:28:14;;;;;;;14.98;7.47;;;7.40;69.20;;;;;;5003007;28;20113;-78
2020/12/10 08:30:53;;;;;;;16.42;7.95;;;7.40;69.40;;;;;;4997053;28;20125;-78
2020/12/10 08:33:19;;;;;;;18.23;9.55;;;7.50;69.50;;;;;;4995801;28;20511;-78
2020/12/10 08:35:45;;;;;;;21.42;9.55;;;7.50;69.40;;;;;;4996585;28;20037;-78
2020/12/10 08:38:11;;;;;;;15.73;8.15;;;7.50;69.40;;;;;;4995548;28;20493;-78
2020/12/10 08:40:37;;;;;;;19.63;8.85;;;7.50;69.50;;;;;;4999058;28;20034;-78
2020/12/10 08:43:14;;;;;;;15.75;8.02;;;7.60;69.40;;;;;;5003616;28;20041;-79
2020/12/10 08:45:44;;;;;;;20.83;10.65;;;7.60;69.40;;;;;;5005047;28;20030;-78
2020/12/10 08:48:15;;;;;;;17.23;9.07;;;7.60;69.40;;;;;;5004657;28;20029;-76
2020/12/10 08:50:55;;;;;;;18.13;9.20;;;7.70;69.40;;;;;;5003898;28;20042;-77
2020/12/10 08:53:21;;;;;;;15.00;8.18;;;7.70;69.40;;;;;;5000811;28;20120;-78
2020/12/10 08:55:50;;;;;;;21.05;10.35;;;7.70;69.30;;;;;;5004157;28;20108;-78
2020/12/10 08:58:27;;;;;;;15.50;8.18;;;7.70;69.30;;;;;;5003406;28;20125;-78
2020/12/10 09:00:54;;;;;;;18.50;9.23;;;7.80;69.30;;;;;;4994702;28;20030;-78
2020/12/10 09:03:20;;;;;;;22.88;9.02;;;7.80;69.30;;;;;;5002999;28;20038;-79
2020/12/10 09:05:45;;;;;;;16.98;8.18;;;7.80;69.40;;;;;;5003611;28;20030;-79
2020/12/10 09:08:12;;;;;;;17.77;7.88;;;7.70;69.40;;;;;;4999847;28;20038;-76
2020/12/10 09:10:38;;;;;;;20.95;9.20;;;7.90;69.50;;;;;;4993808;28;20398;-79
2020/12/10 09:13:04;;;;;;;17.65;8.50;;;7.90;69.60;;;;;;4994614;28;20041;-76
2020/12/10 09:15:30;;;;;;;19.17;9.27;;;7.90;69.50;;;;;;4995812;28;20026;-76
2020/12/10 09:17:56;;;;;;;16.50;8.02;;;8.00;69.50;;;;;;4999329;28;20033;-77
2020/12/10 09:20:22;;;;;;;13.25;6.60;;;7.90;69.40;;;;;;5001724;28;20124;-75
2020/12/10 09:22:47;;;;;;;14.27;7.30;;;8.00;69.40;;;;;;5004088;28;20041;-78
2020/12/10 09:25:13;;;;;;;12.82;6.63;;;8.10;69.40;;;;;;5004590;28;20022;-78
2020/12/10 09:27:39;;;;;;;10.98;6.38;;;8.00;69.40;;;;;;5001253;28;20043;-78
2020/12/10 09:30:06;;;;;;;11.25;6.43;;;8.00;69.30;;;;;;5003543;28;20603;-77
2020/12/10 09:32:34;;;;;;;12.93;6.15;;;8.10;69.30;;;;;;5003038;28;20026;-79
2020/12/10 09:35:04;;;;;;;11.75;6.20;;;8.10;69.30;;;;;;5000523;28;20026;-79
2020/12/10 09:37:29;;;;;;;13.98;7.13;;;8.20;69.30;;;;;;4998138;28;20561;-77
2020/12/10 09:39:55;;;;;;;10.80;5.80;;;8.10;69.20;;;;;;4998385;28;20133;-79
2020/12/10 09:42:21;;;;;;;14.52;7.60;;;8.10;69.20;;;;;;4998491;28;20062;-78
2020/12/10 09:44:46;;;;;;;11.10;6.28;;;8.20;69.20;;;;;;4994436;28;20662;-78
2020/12/10 09:47:12;;;;;;;11.57;6.45;;;8.20;69.20;;;;;;4998382;28;20124;-78
2020/12/10 09:49:38;;;;;;;12.32;6.30;;;8.20;69.20;;;;;;4994267;28;20042;-77
2020/12/10 09:52:04;;;;;;;13.50;6.50;;;8.10;69.10;;;;;;4998238;28;20037;-77
2020/12/10 09:57:22;;;;;;;11.82;5.30;;;8.10;69.20;;;;;;4996542;28;20026;-80
2020/12/10 09:59:47;;;;;;;10.50;5.78;;;8.10;69.20;;;;;;5006053;28;20112;-79
2020/12/10 10:02:16;;;;;;;10.32;5.20;;;8.10;69.20;;;;;;5003649;28;20109;-80
2020/12/10 10:04:41;;;;;;;10.30;6.22;;;8.10;69.30;;;;;;5001251;28;20046;-78
2020/12/10 10:07:07;;;;;;;9.23;5.53;;;8.20;69.40;;;;;;4994396;28;20038;-79
2020/12/10 10:09:33;;;;;;;7.47;4.93;;;8.20;69.30;;;;;;5007105;28;20030;-81
2020/12/10 10:11:59;;;;;;;10.20;5.75;;;8.20;69.30;;;;;;5005951;28;20038;-79
2020/12/10 10:14:24;;;;;;;8.07;4.35;;;8.40;69.40;;;;;;5003193;28;20040;-78
2020/12/10 10:16:53;;;;;;;7.70;4.75;;;8.20;69.30;;;;;;4999067;28;20041;-78
2020/12/10 10:19:19;;;;;;;8.25;4.82;;;8.20;69.30;;;;;;5002700;28;20033;-77
2020/12/10 10:21:44;;;;;;;8.18;4.85;;;8.10;69.20;;;;;;5002165;28;20120;-81
2020/12/10 10:24:10;;;;;;;7.85;4.40;;;8.20;69.30;;;;;;5000650;28;20084;-78
2020/12/10 10:26:35;;;;;;;7.47;4.70;;;8.20;69.20;;;;;;5003966;28;20048;-78
2020/12/10 10:29:04;;;;;;;8.68;4.70;;;8.20;69.20;;;;;;5004585;28;20034;-80
2020/12/10 10:31:30;;;;;;;8.25;4.40;;;8.20;69.30;;;;;;5005420;28;20042;-77
2020/12/10 10:33:55;;;;;;;5.35;3.58;;;8.20;69.40;;;;;;5001402;28;20100;-77
2020/12/10 10:36:22;;;;;;;7.47;4.53;;;8.20;69.50;;;;;;5007289;28;20046;-79
2020/12/10 10:38:48;;;;;;;7.90;4.43;;;8.20;69.70;;;;;;5010304;28;20500;-79
2020/12/10 10:41:13;;;;;;;7.57;4.00;;;8.20;69.70;;;;;;5006434;28;20068;-79
2020/12/10 10:43:39;;;;;;;7.63;4.50;;;8.20;69.70;;;;;;5002409;28;20034;-80
2020/12/10 10:46:05;;;;;;;8.93;4.85;;;8.20;69.60;;;;;;5004773;28;20030;-79
2020/12/10 10:48:30;;;;;;;9.00;4.95;;;8.20;69.60;;;;;;5005608;28;20045;-80
2020/12/10 10:50:57;;;;;;;10.23;5.10;;;8.30;69.60;;;;;;5005900;28;20019;-80
2020/12/10 10:53:22;;;;;;;6.55;4.00;;;8.30;69.60;;;;;;5006633;28;20113;-80
2020/12/10 10:55:48;;;;;;;6.50;4.07;;;8.30;69.50;;;;;;5005885;28;20053;-78
2020/12/10 10:58:14;;;;;;;7.03;4.82;;;8.20;69.50;;;;;;5005696;28;20133;-80
2020/12/10 11:00:39;;;;;;;6.60;4.35;;;8.20;69.50;;;;;;5005454;28;20767;-80
2020/12/10 11:03:05;;;;;;;7.97;4.80;;;8.20;69.50;;;;;;5008143;28;20469;-76
2020/12/10 11:05:30;;;;;;;6.75;3.63;;;8.30;69.50;;;;;;5003371;28;20033;-77
2020/12/10 11:07:57;;;;;;;6.72;4.43;;;8.30;69.40;;;;;;5005653;28;20545;-78
2020/12/10 11:10:23;;;;;;;7.20;4.32;;;8.30;69.30;;;;;;5005034;28;20042;-78
2020/12/10 11:12:49;;;;;;;6.97;3.63;;;8.20;69.20;;;;;;5006515;28;20026;-77
2020/12/10 11:15:16;;;;;;;6.03;3.83;;;8.30;69.30;;;;;;5006571;28;20464;-77
2020/12/10 11:17:41;;;;;;;6.63;3.97;;;8.20;69.20;;;;;;5003811;28;20038;-77
2020/12/10 11:20:07;;;;;;;7.50;4.10;;;8.20;69.20;;;;;;5006095;28;20033;-78
2020/12/10 11:22:34;;;;;;;6.28;4.20;;;8.20;69.20;;;;;;5004610;28;20034;-78
2020/12/10 11:25:00;;;;;;;4.63;3.08;;;8.20;69.20;;;;;;5002798;28;20787;-77
2020/12/10 11:27:25;;;;;;;6.50;3.85;;;8.20;69.30;;;;;;5003729;28;20500;-79
2020/12/10 11:29:51;;;;;;;7.63;3.97;;;8.20;69.20;;;;;;5005721;28;20580;-78
2020/12/10 11:32:16;;;;;;;5.60;4.13;;;8.10;69.20;;;;;;5004115;28;20040;-77
2020/12/10 11:34:42;;;;;;;4.90;3.38;;;8.20;69.30;;;;;;5002837;28;20041;-77
2020/12/10 11:37:08;;;;;;;6.00;3.83;;;8.10;69.20;;;;;;5006665;28;20120;-78
2020/12/10 11:39:33;;;;;;;5.93;3.90;;;8.20;69.30;;;;;;5004866;28;20066;-77
2020/12/10 11:41:59;;;;;;;5.43;3.78;;;8.10;69.30;;;;;;5004263;28;20393;-77
2020/12/10 11:44:24;;;;;;;6.40;4.03;;;8.10;69.30;;;;;;4997759;28;20038;-73
2020/12/10 11:46:50;;;;;;;4.72;3.17;;;8.10;69.40;;;;;;5003894;28;20033;-73
2020/12/10 11:49:16;;;;;;;5.75;4.15;;;8.10;69.50;;;;;;5003077;28;20034;-72
2020/12/10 11:51:41;;;;;;;5.25;3.45;;;8.10;69.50;;;;;;5005920;28;20405;-73
2020/12/10 11:54:07;;;;;;;7.93;4.40;;;8.10;69.60;;;;;;5002498;28;20029;-77
2020/12/10 11:56:32;;;;;;;6.00;3.83;;;8.10;69.80;;;;;;5003445;28;20034;-78
2020/12/10 11:58:59;;;;;;;5.60;3.35;;;8.10;69.80;;;;;;5000632;28;20135;-78
2020/12/10 12:01:25;;;;;;;5.82;3.58;;;8.10;69.80;;;;;;5003593;28;20041;-77
2020/12/10 12:03:51;;;;;;;10.07;4.80;;;8.20;69.80;;;;;;5002419;28;20034;-78
2020/12/10 12:06:17;;;;;;;9.13;4.38;;;8.20;69.80;;;;;;5006032;28;20037;-77
2020/12/10 12:08:43;;;;;;;7.20;4.22;;;8.20;69.80;;;;;;5003533;28;20026;-77
2020/12/10 12:11:08;;;;;;;4.47;3.22;;;8.20;69.70;;;;;;5004865;28;20129;-76
2020/12/10 12:13:34;;;;;;;6.65;4.47;;;8.20;69.70;;;;;;4998442;28;20038;-76
2020/12/10 12:16:00;;;;;;;6.05;3.78;;;8.20;69.70;;;;;;4999407;28;20026;-76
2020/12/10 12:18:27;;;;;;;7.07;4.53;;;8.30;69.90;;;;;;4999109;28;20410;-76
2020/12/10 12:20:53;;;;;;;7.43;4.10;;;8.30;70.00;;;;;;4999363;28;20574;-76
2020/12/10 12:23:18;;;;;;;5.53;3.47;;;8.30;70.00;;;;;;4997984;28;20034;-74
2020/12/10 12:25:44;;;;;;;6.30;4.20;;;8.30;70.10;;;;;;4997763;28;20122;-76
2020/12/10 12:28:09;;;;;;;5.57;3.47;;;8.40;70.10;;;;;;4996495;28;20033;-76
2020/12/10 12:30:35;;;;;;;5.80;3.92;;;8.40;70.00;;;;;;4994509;28;20401;-76
2020/12/10 12:33:01;;;;;;;4.70;3.15;;;8.50;70.00;;;;;;4995022;28;20563;-76
2020/12/10 12:35:26;;;;;;;6.13;4.05;;;8.50;69.90;;;;;;5003660;28;20088;-78
2020/12/10 12:37:52;;;;;;;7.25;4.93;;;8.40;69.80;;;;;;5004368;28;20582;-76
2020/12/10 12:40:18;;;;;;;6.78;4.47;;;8.50;69.80;;;;;;5005329;28;20124;-77
2020/12/10 12:42:44;;;;;;;6.93;4.57;;;8.50;69.80;;;;;;4998104;28;20396;-76
2020/12/10 12:45:10;;;;;;;6.55;3.88;;;8.50;69.80;;;;;;5003034;28;20029;-77
2020/12/10 12:47:36;;;;;;;7.47;4.05;;;8.50;69.70;;;;;;5002635;28;20026;-77
2020/12/10 12:50:04;;;;;;;6.20;4.35;;;8.60;69.80;;;;;;5001039;28;20040;-76
2020/12/10 12:52:30;;;;;;;5.43;3.53;;;8.60;69.80;;;;;;5003895;28;20026;-76
2020/12/10 12:54:56;;;;;;;6.50;4.22;;;8.50;69.70;;;;;;5005277;28;20041;-76
2020/12/10 12:57:22;;;;;;;6.50;3.95;;;8.60;69.70;;;;;;5005035;28;20088;-76